createdAt,value
2019-01-24T00:00:37.673Z,50.10
2019-01-24T00:03:08.363Z,46.20
2019-01-24T00:05:37.733Z,49.57
2019-01-24T00:08:07.195Z,50.47
2019-01-24T00:10:36.575Z,55.73
2019-01-24T00:13:05.991Z,54.27
2019-01-24T00:15:35.398Z,52.87
2019-01-24T00:18:05.137Z,59.30
2019-01-24T00:20:34.535Z,49.63
2019-01-24T00:23:04.006Z,53.03
2019-01-24T00:25:33.420Z,51.07
2019-01-24T00:28:05.624Z,50.33
2019-01-24T00:30:35.007Z,52.70
2019-01-24T00:33:04.467Z,51.07
2019-01-24T00:35:35.585Z,52.97
2019-01-24T00:38:05.090Z,47.90
2019-01-24T00:40:34.528Z,49.20
2019-01-24T00:43:04.044Z,48.43
2019-01-24T00:45:33.415Z,46.17
2019-01-24T00:48:02.833Z,47.43
2019-01-24T00:50:32.140Z,48.37
2019-01-24T00:53:01.552Z,47.90
2019-01-24T00:55:31.008Z,44.77
2019-01-24T00:58:00.395Z,46.83
2019-01-24T01:00:29.950Z,48.47
2019-01-24T01:02:59.760Z,45.00
2019-01-24T01:05:37.023Z,43.70
2019-01-24T01:08:06.428Z,41.23
2019-01-24T01:10:35.838Z,44.07
2019-01-24T01:13:05.488Z,45.70
2019-01-24T01:15:34.951Z,43.33
2019-01-24T01:18:04.484Z,46.67
2019-01-24T01:20:34.340Z,45.63
2019-01-24T01:23:04.008Z,45.63
2019-01-24T01:25:33.423Z,43.47
2019-01-24T01:28:02.828Z,46.37
2019-01-24T01:30:32.203Z,46.17
2019-01-24T01:33:01.617Z,49.63
2019-01-24T01:35:31.113Z,42.83
2019-01-24T01:38:00.514Z,42.03
2019-01-24T01:40:29.952Z,47.03
2019-01-24T01:42:59.346Z,42.77
2019-01-24T01:45:28.881Z,46.00
2019-01-24T01:47:58.254Z,44.23
2019-01-24T01:50:29.278Z,45.77
2019-01-24T01:52:59.049Z,46.07
2019-01-24T01:55:28.520Z,45.37
2019-01-24T01:57:57.923Z,44.20
2019-01-24T02:00:27.538Z,42.63
2019-01-24T02:02:56.940Z,47.50
2019-01-24T02:05:26.285Z,46.27
2019-01-24T02:07:55.747Z,50.10
2019-01-24T02:10:25.411Z,45.03
2019-01-24T02:12:54.788Z,47.37
2019-01-24T02:15:24.185Z,43.43
2019-01-24T02:17:53.568Z,44.63
2019-01-24T02:20:24.082Z,45.10
2019-01-24T02:22:53.696Z,50.27
2019-01-24T02:25:23.298Z,45.33
2019-01-24T02:27:52.677Z,50.80
2019-01-24T02:30:27.203Z,46.77
2019-01-24T02:32:56.661Z,46.40
2019-01-24T02:35:26.033Z,46.97
2019-01-24T02:37:57.973Z,44.30
2019-01-24T02:40:27.431Z,45.27
2019-01-24T02:42:56.871Z,42.33
2019-01-24T02:45:26.383Z,43.20
2019-01-24T02:47:55.765Z,44.60
2019-01-24T02:50:25.140Z,41.57
2019-01-24T02:52:54.516Z,50.73
2019-01-24T02:55:23.915Z,43.53
2019-01-24T02:57:53.340Z,44.97
2019-01-24T03:00:23.990Z,41.30
2019-01-24T03:02:53.527Z,43.33
2019-01-24T03:05:23.919Z,45.87
2019-01-24T03:07:53.360Z,47.33
2019-01-24T03:10:22.745Z,45.90
2019-01-24T03:12:52.167Z,46.53
2019-01-24T03:15:22.580Z,43.37
2019-01-24T03:17:51.982Z,45.53
2019-01-24T03:20:22.900Z,45.63
2019-01-24T03:22:52.270Z,53.00
2019-01-24T03:25:21.721Z,46.33
2019-01-24T03:27:51.091Z,58.07
2019-01-24T03:30:21.963Z,49.23
2019-01-24T03:32:51.532Z,59.00
2019-01-24T03:35:23.931Z,59.43
2019-01-24T03:37:53.369Z,53.80
2019-01-24T03:40:22.878Z,57.23
2019-01-24T03:42:52.422Z,58.27
2019-01-24T03:45:21.783Z,50.33
2019-01-24T03:47:51.169Z,52.00
2019-01-24T03:50:21.767Z,53.33
2019-01-24T03:52:51.381Z,55.87
2019-01-24T03:55:21.599Z,70.97
2019-01-24T03:57:51.036Z,58.77
2019-01-24T04:00:22.932Z,55.90
2019-01-24T04:02:52.432Z,54.47
2019-01-24T04:05:22.250Z,52.53
2019-01-24T04:07:51.615Z,54.73
2019-01-24T04:10:22.048Z,57.80
2019-01-24T04:12:51.487Z,66.03
2019-01-24T04:15:22.806Z,62.90
2019-01-24T04:17:52.410Z,55.50
2019-01-24T04:20:21.945Z,57.93
2019-01-24T04:22:51.390Z,54.03
2019-01-24T04:25:20.751Z,59.90
2019-01-24T04:27:50.291Z,67.57
2019-01-24T04:30:21.509Z,113.77
2019-01-24T04:32:50.959Z,58.97
2019-01-24T04:35:20.560Z,56.40
2019-01-24T04:37:50.008Z,71.50
2019-01-24T04:40:20.129Z,63.20
2019-01-24T04:42:49.673Z,65.03
2019-01-24T04:45:19.187Z,68.13
2019-01-24T04:47:48.672Z,58.50
2019-01-24T04:50:18.704Z,65.20
2019-01-24T04:52:48.127Z,53.73
2019-01-24T04:55:18.647Z,58.47
2019-01-24T04:57:48.230Z,62.90
2019-01-24T05:00:28.534Z,69.73
2019-01-24T05:02:58.024Z,62.57
2019-01-24T05:05:28.223Z,62.70
2019-01-24T05:07:57.746Z,76.23
2019-01-24T05:10:27.107Z,62.10
2019-01-24T05:12:56.416Z,90.67
2019-01-24T05:15:25.823Z,62.70
2019-01-24T05:17:55.237Z,55.40
2019-01-24T05:20:24.648Z,56.87
2019-01-24T05:22:54.154Z,69.30
2019-01-24T05:25:23.529Z,60.60
2019-01-24T05:27:52.917Z,67.97
2019-01-24T05:30:24.681Z,66.50
2019-01-24T05:32:55.379Z,53.33
2019-01-24T05:35:26.735Z,79.07
2019-01-24T05:37:56.529Z,55.97
2019-01-24T05:40:25.976Z,62.17
2019-01-24T05:42:55.431Z,64.30
2019-01-24T05:45:24.833Z,59.20
2019-01-24T05:47:54.214Z,68.30
2019-01-24T05:50:24.543Z,53.87
2019-01-24T05:52:54.135Z,57.10
2019-01-24T05:55:23.616Z,66.60
2019-01-24T05:57:53.075Z,67.10
2019-01-24T06:00:24.424Z,59.77
2019-01-24T06:02:53.862Z,57.70
2019-01-24T06:05:23.404Z,73.87
2019-01-24T06:07:52.860Z,59.53
2019-01-24T06:10:22.347Z,56.87
2019-01-24T06:12:51.721Z,57.53
2019-01-24T06:15:21.104Z,59.07
2019-01-24T06:17:52.032Z,55.43
2019-01-24T06:20:23.026Z,59.07
2019-01-24T06:22:52.440Z,57.60
2019-01-24T06:25:22.598Z,55.70
2019-01-24T06:27:51.965Z,62.00
2019-01-24T06:30:22.918Z,59.77
2019-01-24T06:32:52.345Z,56.13
2019-01-24T06:35:21.731Z,56.90
2019-01-24T06:37:51.110Z,61.67
2019-01-24T06:40:20.514Z,61.67
2019-01-24T06:42:49.881Z,70.50
2019-01-24T06:45:23.398Z,62.60
2019-01-24T06:47:52.777Z,59.27
2019-01-24T06:50:22.255Z,59.60
2019-01-24T06:52:51.623Z,65.80
2019-01-24T06:55:23.887Z,67.90
2019-01-24T06:57:53.432Z,67.20
2019-01-24T07:00:22.802Z,61.27
2019-01-24T07:02:52.199Z,62.50
2019-01-24T07:05:21.563Z,55.63
2019-01-24T07:07:51.008Z,69.93
2019-01-24T07:10:22.314Z,61.27
2019-01-24T07:12:51.705Z,58.67
2019-01-24T07:15:22.207Z,54.60
2019-01-24T07:17:51.666Z,60.87
2019-01-24T07:20:21.578Z,59.73
2019-01-24T07:22:50.957Z,61.00
2019-01-24T07:25:22.468Z,59.30
2019-01-24T07:27:51.859Z,60.93
2019-01-24T07:30:21.673Z,60.70
2019-01-24T07:32:51.125Z,55.67
2019-01-24T07:35:20.885Z,60.27
2019-01-24T07:37:50.387Z,56.77
2019-01-24T07:40:20.423Z,63.77
2019-01-24T07:42:50.305Z,60.60
2019-01-24T07:45:31.232Z,63.57
2019-01-24T07:48:00.719Z,57.63
2019-01-24T07:50:30.180Z,61.07
2019-01-24T07:52:59.618Z,59.73
2019-01-24T07:55:29.171Z,54.97
2019-01-24T07:57:58.692Z,62.77
2019-01-24T08:00:30.424Z,58.80
2019-01-24T08:02:59.866Z,59.67
2019-01-24T08:05:30.569Z,65.63
2019-01-24T08:08:00.127Z,61.77
2019-01-24T08:10:30.154Z,57.60
2019-01-24T08:12:59.558Z,56.73
2019-01-24T08:15:29.269Z,71.20
2019-01-24T08:17:58.812Z,60.87
2019-01-24T08:20:28.568Z,59.67
2019-01-24T08:22:57.998Z,59.27
2019-01-24T08:25:27.392Z,68.50
2019-01-24T08:27:56.759Z,65.40
2019-01-24T08:30:33.015Z,60.33
2019-01-24T08:33:02.382Z,60.83
2019-01-24T08:35:31.814Z,53.03
2019-01-24T08:38:01.392Z,70.03
2019-01-24T08:40:30.768Z,64.33
2019-01-24T08:43:01.668Z,58.57
2019-01-24T08:45:31.113Z,56.13
2019-01-24T08:48:00.502Z,59.47
2019-01-24T08:50:29.873Z,54.57
2019-01-24T08:52:59.239Z,60.37
2019-01-24T08:55:36.479Z,56.27
2019-01-24T08:58:06.119Z,56.30
2019-01-24T09:00:35.709Z,59.30
2019-01-24T09:03:05.355Z,55.47
2019-01-24T09:05:34.814Z,56.43
2019-01-24T09:08:04.321Z,54.57
2019-01-24T09:10:35.761Z,68.80
2019-01-24T09:13:06.580Z,65.10
2019-01-24T09:15:37.813Z,54.07
2019-01-24T09:18:07.477Z,56.93
2019-01-24T09:20:36.921Z,50.20
2019-01-24T09:23:06.354Z,49.73
2019-01-24T09:25:37.477Z,52.37
2019-01-24T09:28:06.855Z,57.00
2019-01-24T09:30:36.216Z,52.70
2019-01-24T09:33:05.598Z,53.60
2019-01-24T09:35:34.970Z,55.53
2019-01-24T09:38:06.430Z,52.40
2019-01-24T09:40:37.528Z,54.07
2019-01-24T09:43:07.023Z,60.00
2019-01-24T09:45:36.461Z,67.07
2019-01-24T09:48:06.153Z,70.53
2019-01-24T09:50:35.542Z,92.70
2019-01-24T09:53:04.890Z,80.40
2019-01-24T09:55:34.281Z,77.07
2019-01-24T09:58:22.469Z,88.03
2019-01-24T10:00:51.960Z,80.13
2019-01-24T10:03:21.322Z,80.87
2019-01-24T10:05:50.694Z,81.13
2019-01-24T10:08:20.163Z,82.23
2019-01-24T10:10:49.504Z,85.30
2019-01-24T10:13:18.882Z,84.73
2019-01-24T10:15:48.247Z,78.37
2019-01-24T10:18:21.598Z,82.77
2019-01-24T10:20:48.921Z,80.93
2019-01-24T10:23:18.383Z,77.97
2019-01-24T10:25:47.746Z,78.47
2019-01-24T10:28:17.111Z,79.07
2019-01-24T10:30:46.588Z,76.93
2019-01-24T10:33:16.093Z,81.27
2019-01-24T10:35:45.476Z,83.67
2019-01-24T10:38:14.850Z,81.83
2019-01-24T10:40:44.226Z,80.13
2019-01-24T10:43:13.605Z,80.63
2019-01-24T10:45:42.990Z,84.03
2019-01-24T10:48:12.356Z,91.90
2019-01-24T10:50:41.731Z,87.23
2019-01-24T10:53:11.129Z,86.10
2019-01-24T10:55:40.648Z,91.00
2019-01-24T10:58:10.040Z,88.87
2019-01-24T11:00:39.908Z,87.60
2019-01-24T11:03:11.044Z,86.77
2019-01-24T11:05:40.494Z,90.17
2019-01-24T11:08:09.918Z,87.10
2019-01-24T11:10:39.396Z,91.87
2019-01-24T11:13:08.857Z,90.00
2019-01-24T11:15:38.242Z,90.60
2019-01-24T11:18:07.869Z,89.10
2019-01-24T11:20:37.241Z,89.13
2019-01-24T11:23:06.730Z,90.03
2019-01-24T11:25:36.192Z,91.30
2019-01-24T11:28:05.619Z,91.63
2019-01-24T11:30:35.302Z,84.43
2019-01-24T11:33:05.443Z,83.47
2019-01-24T11:35:36.545Z,82.53
2019-01-24T11:38:07.187Z,84.23
2019-01-24T11:40:36.825Z,88.53
2019-01-24T11:43:06.419Z,90.90
2019-01-24T11:45:40.464Z,82.27
2019-01-24T11:48:09.904Z,81.27
2019-01-24T11:50:39.274Z,70.17
2019-01-24T11:53:08.673Z,78.37
2019-01-24T11:55:38.104Z,76.30
2019-01-24T11:58:07.659Z,75.13
2019-01-24T12:00:42.603Z,68.10
2019-01-24T12:03:12.055Z,66.10
2019-01-24T12:05:41.483Z,64.33
2019-01-24T12:08:10.958Z,71.23
2019-01-24T12:10:40.690Z,68.63
2019-01-24T12:13:10.092Z,66.57
2019-01-24T12:15:39.499Z,69.10
2019-01-24T12:18:08.928Z,69.03
2019-01-24T12:20:38.330Z,70.10
2019-01-24T12:23:07.685Z,66.87
2019-01-24T12:25:37.138Z,71.83
2019-01-24T12:28:06.660Z,74.13
2019-01-24T12:30:36.954Z,67.73
2019-01-24T12:33:07.467Z,70.47
2019-01-24T12:35:37.014Z,74.50
2019-01-24T12:38:06.433Z,90.67
2019-01-24T12:40:35.860Z,98.97
2019-01-24T12:43:05.509Z,81.00
2019-01-24T12:45:36.521Z,85.43
2019-01-24T12:48:06.346Z,84.57
2019-01-24T12:50:35.795Z,64.30
2019-01-24T12:53:07.158Z,75.33
2019-01-24T12:55:36.641Z,70.60
2019-01-24T12:58:06.168Z,83.53
2019-01-24T13:00:37.088Z,75.60
2019-01-24T13:03:06.535Z,86.03
2019-01-24T13:05:35.969Z,77.13
2019-01-24T13:08:05.586Z,58.97
2019-01-24T13:10:35.104Z,51.80
2019-01-24T13:13:05.125Z,56.37
2019-01-24T13:15:34.735Z,62.93
2019-01-24T13:18:04.902Z,39.47
2019-01-24T13:20:35.775Z,32.67
2019-01-24T13:23:05.366Z,42.73
2019-01-24T13:25:34.871Z,47.80
2019-01-24T13:28:04.643Z,35.13
2019-01-24T13:30:35.087Z,49.97
2019-01-24T13:33:05.381Z,37.80
2019-01-24T13:35:34.838Z,40.17
2019-01-24T13:38:05.095Z,47.03
2019-01-24T13:40:36.081Z,44.57
2019-01-24T13:43:05.773Z,47.20
2019-01-24T13:45:36.479Z,31.60
2019-01-24T13:48:06.089Z,40.13
2019-01-24T13:50:35.605Z,41.17
2019-01-24T13:53:05.381Z,41.83
2019-01-24T13:55:34.824Z,36.30
2019-01-24T13:58:04.558Z,47.60
2019-01-24T14:00:35.521Z,35.80
2019-01-24T14:03:13.796Z,40.00
2019-01-24T14:05:43.183Z,32.20
2019-01-24T14:08:12.769Z,48.30
2019-01-24T14:10:42.217Z,38.50
2019-01-24T14:13:11.598Z,38.00
2019-01-24T14:15:41.082Z,40.53
2019-01-24T14:18:10.495Z,48.00
2019-01-24T14:20:39.960Z,48.07
2019-01-24T14:23:09.725Z,45.93
2019-01-24T14:25:39.377Z,47.07
2019-01-24T14:28:12.113Z,46.40
2019-01-24T14:30:40.072Z,53.03
2019-01-24T14:33:09.502Z,48.03
2019-01-24T14:35:38.974Z,50.20
2019-01-24T14:38:09.087Z,57.20
2019-01-24T14:40:38.505Z,48.73
2019-01-24T14:43:07.954Z,54.63
2019-01-24T14:45:37.443Z,51.67
2019-01-24T14:48:07.243Z,51.23
2019-01-24T14:50:36.644Z,51.30
2019-01-24T14:53:06.312Z,56.80
2019-01-24T14:55:35.852Z,56.87
2019-01-24T14:58:05.349Z,52.17
2019-01-24T15:00:40.817Z,60.50
2019-01-24T15:03:10.191Z,59.63
2019-01-24T15:05:39.552Z,58.17
2019-01-24T15:08:09.071Z,62.43
2019-01-24T15:10:38.512Z,61.13
2019-01-24T15:13:08.060Z,57.70
2019-01-24T15:15:37.528Z,49.23
2019-01-24T15:18:07.081Z,60.33
2019-01-24T15:20:36.521Z,50.90
2019-01-24T15:23:06.705Z,56.03
2019-01-24T15:25:36.139Z,56.90
2019-01-24T15:28:05.589Z,59.53
2019-01-24T15:30:34.997Z,58.60
2019-01-24T15:33:04.504Z,53.37
2019-01-24T15:35:33.906Z,59.20
2019-01-24T15:38:03.283Z,55.33
2019-01-24T15:40:33.696Z,52.03
2019-01-24T15:43:03.169Z,55.27
2019-01-24T15:45:32.902Z,53.67
2019-01-24T15:48:02.276Z,50.77
2019-01-24T15:50:31.765Z,54.47
2019-01-24T15:53:01.196Z,50.10
2019-01-24T15:55:30.594Z,51.90
2019-01-24T15:58:00.037Z,55.00
2019-01-24T16:00:34.300Z,53.63
2019-01-24T16:03:04.097Z,59.40
2019-01-24T16:05:33.557Z,51.20
2019-01-24T16:08:05.434Z,59.20
2019-01-24T16:10:34.807Z,51.53
2019-01-24T16:13:04.457Z,49.93
2019-01-24T16:15:35.768Z,51.90
2019-01-24T16:18:07.613Z,55.57
2019-01-24T16:20:37.157Z,52.47
2019-01-24T16:23:06.700Z,47.50
2019-01-24T16:25:36.423Z,49.73
2019-01-24T16:28:06.021Z,50.27
2019-01-24T16:30:36.757Z,58.40
2019-01-24T16:33:07.393Z,57.73
2019-01-24T16:35:37.111Z,55.37
2019-01-24T16:38:09.483Z,55.10
2019-01-24T16:40:37.687Z,54.37
2019-01-24T16:43:07.184Z,56.67
2019-01-24T16:45:36.654Z,55.40
2019-01-24T16:48:06.276Z,57.90
2019-01-24T16:50:35.718Z,54.73
2019-01-24T16:53:05.478Z,46.13
2019-01-24T16:55:34.941Z,51.63
2019-01-24T16:58:05.080Z,49.97
2019-01-24T17:00:37.569Z,55.70
2019-01-24T17:03:07.112Z,58.03
2019-01-24T17:05:36.659Z,53.13
2019-01-24T17:08:06.686Z,53.93
2019-01-24T17:10:36.104Z,53.43
2019-01-24T17:13:06.251Z,58.50
2019-01-24T17:15:35.834Z,57.90
2019-01-24T17:18:05.567Z,57.73
2019-01-24T17:20:35.248Z,51.93
2019-01-24T17:23:06.558Z,52.70
2019-01-24T17:25:36.387Z,56.07
2019-01-24T17:28:06.155Z,50.90
2019-01-24T17:30:35.582Z,49.43
2019-01-24T17:33:06.404Z,54.60
2019-01-24T17:35:35.809Z,57.90
2019-01-24T17:38:06.151Z,53.30
2019-01-24T17:40:36.273Z,61.00
2019-01-24T17:43:06.020Z,64.07
2019-01-24T17:45:35.581Z,57.37
2019-01-24T17:48:05.694Z,60.27
2019-01-24T17:50:35.144Z,61.23
2019-01-24T17:53:04.696Z,59.67
2019-01-24T17:55:39.562Z,52.77
2019-01-24T17:58:09.687Z,56.73
2019-01-24T18:00:40.889Z,58.27
2019-01-24T18:03:10.945Z,60.43
2019-01-24T18:05:40.358Z,59.07
2019-01-24T18:08:09.876Z,60.00
2019-01-24T18:10:42.367Z,54.20
2019-01-24T18:13:11.802Z,58.47
2019-01-24T18:15:41.237Z,61.37
2019-01-24T18:18:12.753Z,60.80
2019-01-24T18:20:42.106Z,57.00
2019-01-24T18:23:11.743Z,57.50
2019-01-24T18:25:41.175Z,64.70
2019-01-24T18:28:11.622Z,58.37
2019-01-24T18:30:41.116Z,62.17
2019-01-24T18:33:10.483Z,63.17
2019-01-24T18:35:39.870Z,62.67
2019-01-24T18:38:09.324Z,68.53
2019-01-24T18:40:38.857Z,66.20
2019-01-24T18:43:11.162Z,62.93
2019-01-24T18:45:44.097Z,61.87
2019-01-24T18:48:13.529Z,63.03
2019-01-24T18:50:42.983Z,67.37
2019-01-24T18:53:12.411Z,65.10
2019-01-24T18:55:41.856Z,54.87
2019-01-24T18:58:11.247Z,75.90
2019-01-24T19:00:44.899Z,72.10
2019-01-24T19:03:14.598Z,59.87
2019-01-24T19:05:44.029Z,57.20
2019-01-24T19:08:13.970Z,49.43
2019-01-24T19:10:43.475Z,53.73
2019-01-24T19:13:13.696Z,50.23
2019-01-24T19:15:43.058Z,50.73
2019-01-24T19:18:12.625Z,50.73
2019-01-24T19:20:42.719Z,52.47
2019-01-24T19:23:12.179Z,49.13
2019-01-24T19:25:41.636Z,50.67
2019-01-24T19:28:11.023Z,49.03
2019-01-24T19:30:40.435Z,55.00
2019-01-24T19:33:09.978Z,58.50
2019-01-24T19:35:39.459Z,55.23
2019-01-24T19:38:08.855Z,52.63
2019-01-24T19:40:38.245Z,56.80
2019-01-24T19:43:07.853Z,51.93
2019-01-24T19:45:37.472Z,53.20
2019-01-24T19:48:07.679Z,50.63
2019-01-24T19:50:37.208Z,54.07
2019-01-24T19:53:07.067Z,51.77
2019-01-24T19:55:38.178Z,52.03
2019-01-24T19:58:08.036Z,52.93
2019-01-24T20:00:37.802Z,55.77
2019-01-24T20:03:07.670Z,51.10
2019-01-24T20:05:37.282Z,50.03
2019-01-24T20:08:06.959Z,50.83
2019-01-24T20:10:36.511Z,54.83
2019-01-24T20:13:06.151Z,56.30
2019-01-24T20:15:35.618Z,52.50
2019-01-24T20:18:06.086Z,49.77
2019-01-24T20:20:35.491Z,55.13
2019-01-24T20:23:07.929Z,54.73
2019-01-24T20:25:37.564Z,52.13
2019-01-24T20:28:06.936Z,51.53
2019-01-24T20:30:38.039Z,53.27
2019-01-24T20:33:07.540Z,51.23
2019-01-24T20:35:42.632Z,56.27
2019-01-24T20:38:12.387Z,55.03
2019-01-24T20:40:43.535Z,55.13
2019-01-24T20:43:14.072Z,61.97
2019-01-24T20:45:43.562Z,58.37
2019-01-24T20:48:13.128Z,54.67
2019-01-24T20:50:42.453Z,56.23
2019-01-24T20:53:14.632Z,55.80
2019-01-24T20:55:44.145Z,56.90
2019-01-24T20:58:13.584Z,54.50
2019-01-24T21:00:43.096Z,57.23
2019-01-24T21:03:12.551Z,59.40
2019-01-24T21:05:42.038Z,60.00
2019-01-24T21:08:11.505Z,64.37
2019-01-24T21:10:40.887Z,55.17
2019-01-24T21:13:10.296Z,57.67
2019-01-24T21:15:39.677Z,61.53
2019-01-24T21:18:09.118Z,65.17
2019-01-24T21:20:38.578Z,54.43
2019-01-24T21:23:07.939Z,64.03
2019-01-24T21:25:37.375Z,53.60
2019-01-24T21:28:06.828Z,52.33
2019-01-24T21:30:37.447Z,56.17
2019-01-24T21:33:07.552Z,56.27
2019-01-24T21:35:37.126Z,53.90
2019-01-24T21:38:07.042Z,60.67
2019-01-24T21:40:36.424Z,57.47
2019-01-24T21:43:06.160Z,57.03
2019-01-24T21:45:37.363Z,58.63
2019-01-24T21:48:08.015Z,54.87
2019-01-24T21:50:37.522Z,51.73
2019-01-24T21:53:07.106Z,55.67
2019-01-24T21:55:37.629Z,54.90
2019-01-24T21:58:07.665Z,64.17
2019-01-24T22:00:37.108Z,66.17
2019-01-24T22:03:06.969Z,60.97
2019-01-24T22:05:38.087Z,63.13
2019-01-24T22:08:07.619Z,63.10
2019-01-24T22:10:37.000Z,63.90
2019-01-24T22:13:06.514Z,59.80
2019-01-24T22:15:35.921Z,65.17
2019-01-24T22:18:05.934Z,62.57
2019-01-24T22:20:35.499Z,66.73
2019-01-24T22:23:05.332Z,63.07
2019-01-24T22:25:35.318Z,57.90
2019-01-24T22:28:05.594Z,64.33
2019-01-24T22:30:39.542Z,66.63
2019-01-24T22:33:09.105Z,66.13
2019-01-24T22:35:38.579Z,66.70
2019-01-24T22:38:08.805Z,67.33
2019-01-24T22:40:38.184Z,72.37
2019-01-24T22:43:08.003Z,67.50
2019-01-24T22:45:37.378Z,61.90
2019-01-24T22:48:07.134Z,63.83
2019-01-24T22:50:36.577Z,66.43
2019-01-24T22:53:06.220Z,68.60
2019-01-24T22:55:35.620Z,67.83
2019-01-24T22:58:05.560Z,62.83
2019-01-24T23:00:48.586Z,70.57
2019-01-24T23:03:21.030Z,67.33
2019-01-24T23:05:50.463Z,70.93
2019-01-24T23:08:20.002Z,71.97
2019-01-24T23:10:49.581Z,65.17
2019-01-24T23:13:22.016Z,68.30
2019-01-24T23:15:52.680Z,64.77
2019-01-24T23:18:22.121Z,69.80
2019-01-24T23:20:51.502Z,68.90
2019-01-24T23:23:20.896Z,66.47
2019-01-24T23:25:50.317Z,67.50
2019-01-24T23:28:20.667Z,70.03
2019-01-24T23:30:50.063Z,70.17
2019-01-24T23:33:19.492Z,64.40
2019-01-24T23:35:48.899Z,69.87
2019-01-24T23:38:18.286Z,74.33
2019-01-24T23:40:47.731Z,63.93
2019-01-24T23:43:17.102Z,62.87
2019-01-24T23:45:46.495Z,62.73
2019-01-24T23:48:15.889Z,64.20
2019-01-24T23:50:45.323Z,70.67
2019-01-24T23:53:14.699Z,67.33
2019-01-24T23:55:44.184Z,67.17
2019-01-24T23:58:13.588Z,71.23
